Terminal Aerodrome Forecast
Issued by NWS

Home | Current Version | Previous Version | Text Only | Print | Product List | Glossary On
Versions: 1 2 3 4 5 6 7 8 9 10 11 12 13 14
000
FTUS45 KRIW 210500
TAFCPR
TAF
KCPR 210522Z 2106/2206 23009KT P6SM FEW200
     FM211400 22014G24KT P6SM BKN200
     FM211700 22024G34KT P6SM SCT090 BKN150
     FM212300 24013G21KT P6SM SCT090 BKN150
     FM220500 24008KT P6SM SCT100=

USA.gov is the U.S. government's official web portal to all federal, state and local government web resources and services.